createdAt,value
2019-03-19T00:00:34.652Z,68.47
2019-03-19T00:01:11.624Z,68.63
2019-03-19T00:01:47.344Z,68.80
2019-03-19T00:02:23.809Z,68.83
2019-03-19T00:02:59.269Z,68.69
2019-03-19T00:03:34.707Z,68.95
2019-03-19T00:04:10.407Z,69.10
2019-03-19T00:04:45.887Z,68.77
2019-03-19T00:05:21.814Z,68.82
2019-03-19T00:05:57.245Z,68.96
2019-03-19T00:06:32.723Z,69.02
2019-03-19T00:07:08.584Z,68.93
2019-03-19T00:07:44.207Z,68.76
2019-03-19T00:08:19.684Z,68.70
2019-03-19T00:08:55.207Z,68.80
2019-03-19T00:09:30.682Z,68.87
2019-03-19T00:10:07.369Z,69.21
2019-03-19T00:10:42.944Z,69.38
2019-03-19T00:11:18.674Z,69.62
2019-03-19T00:11:54.138Z,69.66
2019-03-19T00:12:30.263Z,69.79
2019-03-19T00:13:05.793Z,69.89
2019-03-19T00:13:41.724Z,69.58
2019-03-19T00:14:17.283Z,69.42
2019-03-19T00:14:52.720Z,69.46
2019-03-19T00:15:28.611Z,69.39
2019-03-19T00:16:04.046Z,69.71
2019-03-19T00:16:39.834Z,69.91
2019-03-19T00:17:15.703Z,70.15
2019-03-19T00:17:51.424Z,69.84
2019-03-19T00:18:27.568Z,69.92
2019-03-19T00:19:02.989Z,70.13
2019-03-19T00:19:38.870Z,70.27
2019-03-19T00:20:14.660Z,70.20
2019-03-19T00:20:50.085Z,70.01
2019-03-19T00:21:25.933Z,70.05
2019-03-19T00:22:01.358Z,69.85
2019-03-19T00:22:36.795Z,69.52
2019-03-19T00:23:12.583Z,69.75
2019-03-19T00:23:48.027Z,70.03
2019-03-19T00:24:23.445Z,70.17
2019-03-19T00:24:58.914Z,70.20
2019-03-19T00:25:34.629Z,70.43
2019-03-19T00:26:10.122Z,70.64
2019-03-19T00:26:45.673Z,70.48
2019-03-19T00:27:21.099Z,70.65
2019-03-19T00:27:56.865Z,70.83
2019-03-19T00:28:32.335Z,71.01
2019-03-19T00:29:08.173Z,71.01
2019-03-19T00:29:44.353Z,71.10
2019-03-19T00:30:21.583Z,71.15
2019-03-19T00:30:57.489Z,71.29
2019-03-19T00:31:32.919Z,71.20
2019-03-19T00:32:09.216Z,71.09
2019-03-19T00:32:44.720Z,71.03
2019-03-19T00:33:20.487Z,71.14
2019-03-19T00:33:56.040Z,71.08
2019-03-19T00:34:31.755Z,71.17
2019-03-19T00:35:07.624Z,71.07
2019-03-19T00:35:43.105Z,71.16
2019-03-19T00:36:18.583Z,71.20
2019-03-19T00:36:54.017Z,71.26
2019-03-19T00:37:29.475Z,71.23
2019-03-19T00:38:04.981Z,71.39
2019-03-19T00:38:40.451Z,71.54
2019-03-19T00:39:15.914Z,71.48
2019-03-19T00:39:51.342Z,71.46
2019-03-19T00:40:27.528Z,71.46
2019-03-19T00:41:02.954Z,71.45
2019-03-19T00:41:38.447Z,71.51
2019-03-19T00:42:13.936Z,71.58
2019-03-19T00:42:50.097Z,71.61
2019-03-19T00:43:25.554Z,71.72
2019-03-19T00:44:01.395Z,71.67
2019-03-19T00:44:36.922Z,71.69
2019-03-19T00:45:12.893Z,71.55
2019-03-19T00:45:48.466Z,71.45
2019-03-19T00:46:23.912Z,71.37
2019-03-19T00:46:59.766Z,71.19
2019-03-19T00:47:35.247Z,71.28
2019-03-19T00:48:11.470Z,71.39
2019-03-19T00:48:47.550Z,71.46
2019-03-19T00:49:23.007Z,71.54
2019-03-19T00:49:58.541Z,71.56
2019-03-19T00:50:34.324Z,71.63
2019-03-19T00:51:09.841Z,71.59
2019-03-19T00:51:45.447Z,71.59
2019-03-19T00:52:20.886Z,71.68
2019-03-19T00:52:56.297Z,71.77
2019-03-19T00:53:31.739Z,71.68
2019-03-19T00:54:07.245Z,71.78
2019-03-19T00:54:43.387Z,71.81
2019-03-19T00:55:18.876Z,71.84
2019-03-19T00:55:54.687Z,71.78
2019-03-19T00:56:30.149Z,71.61
2019-03-19T00:57:05.598Z,71.60
2019-03-19T00:57:41.314Z,71.73
2019-03-19T00:58:17.104Z,71.77
2019-03-19T00:58:52.862Z,71.37
2019-03-19T00:59:28.286Z,71.04
2019-03-19T01:00:05.135Z,71.06
2019-03-19T01:00:40.884Z,71.03
2019-03-19T01:01:16.384Z,71.18
2019-03-19T01:01:52.253Z,71.08
2019-03-19T01:02:28.058Z,70.92
2019-03-19T01:03:03.596Z,71.16
2019-03-19T01:03:39.928Z,71.32
2019-03-19T01:04:15.417Z,71.43
2019-03-19T01:04:50.867Z,71.43
2019-03-19T01:05:26.304Z,71.45
2019-03-19T01:06:02.178Z,71.43
2019-03-19T01:06:38.148Z,71.43
2019-03-19T01:07:13.617Z,71.53
2019-03-19T01:07:49.852Z,71.59
2019-03-19T01:08:25.278Z,71.57
2019-03-19T01:09:00.705Z,71.63
2019-03-19T01:09:36.312Z,71.59
2019-03-19T01:10:12.575Z,71.57
2019-03-19T01:10:48.675Z,71.57
2019-03-19T01:11:24.733Z,71.51
2019-03-19T01:12:00.194Z,71.46
2019-03-19T01:12:35.707Z,71.23
2019-03-19T01:13:11.270Z,71.28
2019-03-19T01:13:47.282Z,71.39
2019-03-19T01:14:22.714Z,71.56
2019-03-19T01:14:58.146Z,71.51
2019-03-19T01:15:33.607Z,71.59
2019-03-19T01:16:09.405Z,71.73
2019-03-19T01:16:44.975Z,71.83
2019-03-19T01:17:20.840Z,71.91
2019-03-19T01:17:56.277Z,71.97
2019-03-19T01:18:31.702Z,72.02
2019-03-19T01:19:07.173Z,72.14
2019-03-19T01:19:42.663Z,72.17
2019-03-19T01:20:18.488Z,72.15
2019-03-19T01:20:54.254Z,72.07
2019-03-19T01:21:29.975Z,72.03
2019-03-19T01:22:05.723Z,72.00
2019-03-19T01:22:41.556Z,71.94
2019-03-19T01:23:17.306Z,71.89
2019-03-19T01:23:53.042Z,71.79
2019-03-19T01:24:29.302Z,71.74
2019-03-19T01:25:05.235Z,71.64
2019-03-19T01:25:54.455Z,71.69
2019-03-19T01:26:18.113Z,71.66
2019-03-19T01:26:54.019Z,71.67
2019-03-19T01:27:29.445Z,71.61
2019-03-19T01:28:05.311Z,71.61
2019-03-19T01:28:41.320Z,71.62
2019-03-19T01:29:16.784Z,71.71
2019-03-19T01:29:52.825Z,71.67
2019-03-19T01:30:28.539Z,71.66
2019-03-19T01:31:04.100Z,71.64
2019-03-19T01:31:39.719Z,71.47
2019-03-19T01:32:15.559Z,71.26
2019-03-19T01:32:51.100Z,71.18
2019-03-19T01:33:27.137Z,71.17
2019-03-19T01:34:02.938Z,71.09
2019-03-19T01:34:38.434Z,71.18
2019-03-19T01:35:14.278Z,71.21
2019-03-19T01:35:50.080Z,71.35
2019-03-19T01:36:25.515Z,71.44
2019-03-19T01:37:00.970Z,71.28
2019-03-19T01:37:36.420Z,71.29
2019-03-19T01:38:12.272Z,71.06
2019-03-19T01:38:48.125Z,71.02
2019-03-19T01:39:23.836Z,71.08
2019-03-19T01:39:59.270Z,71.19
2019-03-19T01:40:34.711Z,71.31
2019-03-19T01:41:10.461Z,71.47
2019-03-19T01:41:45.965Z,71.30
2019-03-19T01:42:21.734Z,71.23
2019-03-19T01:42:57.506Z,71.12
2019-03-19T01:43:32.939Z,71.04
2019-03-19T01:44:08.785Z,71.08
2019-03-19T01:44:44.376Z,71.16
2019-03-19T01:45:19.805Z,71.33
2019-03-19T01:45:55.555Z,71.50
2019-03-19T01:46:31.022Z,71.61
2019-03-19T01:47:06.636Z,71.81
2019-03-19T01:47:42.872Z,71.92
2019-03-19T01:48:18.434Z,71.85
2019-03-19T01:48:54.170Z,71.65
2019-03-19T01:49:29.901Z,71.65
2019-03-19T01:50:06.942Z,71.72
2019-03-19T01:50:42.817Z,71.80
2019-03-19T01:51:18.315Z,71.78
2019-03-19T01:51:54.106Z,71.68
2019-03-19T01:52:29.827Z,71.67
2019-03-19T01:53:05.349Z,71.68
2019-03-19T01:53:40.953Z,71.78
2019-03-19T01:54:17.465Z,71.67
2019-03-19T01:54:52.897Z,71.55
2019-03-19T01:55:28.340Z,71.38
2019-03-19T01:56:05.451Z,71.40
2019-03-19T01:56:41.361Z,71.37
2019-03-19T01:57:17.094Z,71.38
2019-03-19T01:57:52.525Z,71.45
2019-03-19T01:58:28.429Z,71.37
2019-03-19T01:59:03.887Z,71.29
2019-03-19T01:59:39.671Z,71.27
2019-03-19T02:00:15.238Z,71.25
2019-03-19T02:00:51.082Z,71.27
2019-03-19T02:01:26.556Z,71.25
2019-03-19T02:02:01.999Z,71.26
2019-03-19T02:02:38.011Z,71.31
2019-03-19T02:03:13.501Z,71.31
2019-03-19T02:03:49.360Z,71.34
2019-03-19T02:04:24.788Z,71.36
2019-03-19T02:05:00.631Z,71.37
2019-03-19T02:05:36.936Z,71.42
2019-03-19T02:06:12.825Z,71.57
2019-03-19T02:06:48.263Z,71.57
2019-03-19T02:07:23.965Z,71.56
2019-03-19T02:07:59.379Z,71.45
2019-03-19T02:08:35.155Z,71.41
2019-03-19T02:09:11.023Z,71.38
2019-03-19T02:09:46.840Z,71.26
2019-03-19T02:10:22.272Z,71.23
2019-03-19T02:10:57.703Z,71.23
2019-03-19T02:11:33.157Z,70.90
2019-03-19T02:12:08.623Z,70.74
2019-03-19T02:12:44.517Z,70.74
2019-03-19T02:13:20.324Z,70.83
2019-03-19T02:13:55.903Z,70.76
2019-03-19T02:14:31.325Z,70.82
2019-03-19T02:15:07.195Z,70.92
2019-03-19T02:15:42.827Z,70.73
2019-03-19T02:16:18.292Z,70.56
2019-03-19T02:16:53.723Z,70.54
2019-03-19T02:17:29.140Z,70.64
2019-03-19T02:18:04.945Z,70.80
2019-03-19T02:18:40.554Z,70.94
2019-03-19T02:19:16.053Z,71.05
2019-03-19T02:19:51.482Z,71.02
2019-03-19T02:20:26.911Z,71.04
2019-03-19T02:21:03.037Z,71.14
2019-03-19T02:21:38.905Z,71.27
2019-03-19T02:22:14.345Z,71.32
2019-03-19T02:22:50.474Z,71.24
2019-03-19T02:23:25.926Z,71.01
2019-03-19T02:24:01.356Z,70.85
2019-03-19T02:24:36.798Z,70.84
2019-03-19T02:25:12.618Z,70.85
2019-03-19T02:25:48.186Z,70.77
2019-03-19T02:26:23.643Z,70.68
2019-03-19T02:26:59.084Z,70.54
2019-03-19T02:27:34.621Z,70.50
2019-03-19T02:28:10.709Z,70.45
2019-03-19T02:28:46.654Z,70.39
2019-03-19T02:29:22.113Z,70.30
2019-03-19T02:29:57.550Z,70.24
2019-03-19T02:30:33.664Z,70.22
2019-03-19T02:31:09.152Z,70.25
2019-03-19T02:31:45.011Z,70.35
2019-03-19T02:32:20.460Z,70.40
2019-03-19T02:32:55.885Z,70.43
2019-03-19T02:33:31.351Z,70.53
2019-03-19T02:34:06.804Z,70.49
2019-03-19T02:34:42.468Z,70.19
2019-03-19T02:35:17.964Z,70.00
2019-03-19T02:35:53.447Z,69.96
2019-03-19T02:36:29.321Z,70.01
2019-03-19T02:37:05.092Z,69.83
2019-03-19T02:37:40.576Z,69.64
2019-03-19T02:38:16.813Z,69.63
2019-03-19T02:38:52.253Z,69.56
2019-03-19T02:39:28.044Z,69.31
2019-03-19T02:40:03.513Z,69.37
2019-03-19T02:40:39.096Z,69.45
2019-03-19T02:41:14.584Z,69.51
2019-03-19T02:41:50.086Z,69.61
2019-03-19T02:42:25.509Z,69.47
2019-03-19T02:43:00.946Z,69.29
2019-03-19T02:43:36.396Z,69.25
2019-03-19T02:44:11.912Z,68.90
2019-03-19T02:44:47.699Z,68.45
2019-03-19T02:45:23.531Z,68.23
2019-03-19T02:45:59.087Z,68.12
2019-03-19T02:46:34.534Z,68.08
2019-03-19T02:47:10.362Z,68.11
2019-03-19T02:47:45.858Z,67.60
2019-03-19T02:48:21.270Z,67.34
2019-03-19T02:48:56.716Z,67.09
2019-03-19T02:49:32.133Z,66.88
2019-03-19T02:50:08.591Z,66.91
2019-03-19T02:50:44.147Z,67.12
2019-03-19T02:51:19.572Z,67.21
2019-03-19T02:51:55.011Z,67.18
2019-03-19T02:52:30.439Z,67.18
2019-03-19T02:53:05.951Z,66.97
2019-03-19T02:53:41.762Z,66.94
2019-03-19T02:54:17.578Z,66.80
2019-03-19T02:54:53.001Z,66.47
2019-03-19T02:55:28.771Z,66.14
2019-03-19T02:56:04.208Z,65.95
2019-03-19T02:56:39.706Z,65.85
2019-03-19T02:57:15.227Z,65.74
2019-03-19T02:57:51.100Z,66.01
2019-03-19T02:58:26.529Z,66.24
2019-03-19T02:59:01.968Z,66.37
2019-03-19T02:59:37.849Z,66.38
2019-03-19T03:00:13.870Z,66.50
2019-03-19T03:00:49.691Z,66.47
2019-03-19T03:01:25.173Z,66.38
2019-03-19T03:02:01.042Z,66.53
2019-03-19T03:02:36.594Z,66.65
2019-03-19T03:03:12.369Z,66.75
2019-03-19T03:03:48.247Z,66.67
2019-03-19T03:04:23.761Z,66.80
2019-03-19T03:04:59.224Z,66.92
2019-03-19T03:05:34.670Z,67.00
2019-03-19T03:06:10.456Z,66.96
2019-03-19T03:06:45.986Z,67.07
2019-03-19T03:07:21.417Z,67.48
2019-03-19T03:07:56.870Z,67.79
2019-03-19T03:08:32.438Z,68.12
2019-03-19T03:09:08.436Z,68.24
2019-03-19T03:09:43.925Z,68.59
2019-03-19T03:10:19.734Z,68.88
2019-03-19T03:10:55.188Z,69.17
2019-03-19T03:11:30.986Z,69.32
2019-03-19T03:12:06.448Z,69.32
2019-03-19T03:12:42.020Z,69.48
2019-03-19T03:13:17.548Z,69.70
2019-03-19T03:13:53.369Z,69.82
2019-03-19T03:14:29.173Z,69.79
2019-03-19T03:15:04.783Z,69.79
2019-03-19T03:15:40.219Z,69.88
2019-03-19T03:16:15.688Z,69.92
2019-03-19T03:16:51.254Z,70.06
2019-03-19T03:17:26.954Z,70.14
2019-03-19T03:18:02.406Z,70.18
2019-03-19T03:18:37.870Z,70.25
2019-03-19T03:19:13.676Z,70.20
2019-03-19T03:19:49.140Z,70.25
2019-03-19T03:20:24.927Z,70.32
2019-03-19T03:21:00.379Z,70.46
2019-03-19T03:21:36.121Z,70.73
2019-03-19T03:22:11.661Z,70.91
2019-03-19T03:22:47.122Z,71.09
2019-03-19T03:23:22.958Z,71.17
2019-03-19T03:23:58.833Z,71.20
2019-03-19T03:24:34.509Z,71.22
2019-03-19T03:25:10.076Z,71.18
2019-03-19T03:25:45.623Z,71.05
2019-03-19T03:26:21.105Z,70.37
2019-03-19T03:26:56.589Z,70.16
2019-03-19T03:27:32.109Z,70.44
2019-03-19T03:28:07.543Z,70.26
2019-03-19T03:28:43.079Z,70.48
2019-03-19T03:29:19.496Z,70.78
2019-03-19T03:29:55.020Z,71.06
2019-03-19T03:30:30.473Z,71.24
2019-03-19T03:31:06.298Z,71.43
2019-03-19T03:31:41.805Z,71.65
2019-03-19T03:32:17.384Z,71.90
2019-03-19T03:32:52.844Z,72.01
2019-03-19T03:33:28.741Z,72.03
2019-03-19T03:34:04.368Z,72.11
2019-03-19T03:34:39.812Z,72.25
2019-03-19T03:35:15.273Z,72.48
2019-03-19T03:35:51.348Z,72.52
2019-03-19T03:36:26.777Z,72.48
2019-03-19T03:37:03.036Z,72.58
2019-03-19T03:37:38.876Z,72.61
2019-03-19T03:38:14.710Z,72.62
2019-03-19T03:38:50.265Z,72.60
2019-03-19T03:39:25.718Z,72.49
2019-03-19T03:40:01.239Z,72.00
2019-03-19T03:40:36.642Z,71.89
2019-03-19T03:41:12.512Z,72.18
2019-03-19T03:41:47.994Z,72.27
2019-03-19T03:42:23.441Z,72.38
2019-03-19T03:42:58.882Z,72.55
2019-03-19T03:43:34.409Z,72.57
2019-03-19T03:44:09.850Z,72.53
2019-03-19T03:44:45.774Z,72.57
2019-03-19T03:45:21.869Z,72.67
2019-03-19T03:45:57.317Z,72.69
2019-03-19T03:46:33.328Z,72.68
2019-03-19T03:47:08.766Z,72.80
2019-03-19T03:47:44.354Z,72.86
2019-03-19T03:48:19.800Z,72.86
2019-03-19T03:48:55.309Z,72.92
2019-03-19T03:49:30.764Z,73.03
2019-03-19T03:50:06.604Z,73.08
2019-03-19T03:50:42.218Z,73.10
2019-03-19T03:51:17.727Z,73.04
2019-03-19T03:51:53.156Z,73.00
2019-03-19T03:52:28.587Z,73.00
2019-03-19T03:53:04.529Z,72.83
2019-03-19T03:53:39.994Z,72.84
2019-03-19T03:54:15.870Z,72.87
2019-03-19T03:54:51.316Z,72.88
2019-03-19T03:55:26.775Z,73.09
2019-03-19T03:56:02.485Z,73.20
2019-03-19T03:56:38.390Z,73.33
2019-03-19T03:57:14.198Z,73.36
2019-03-19T03:57:49.660Z,73.43
2019-03-19T03:58:25.593Z,73.52
2019-03-19T03:59:01.544Z,73.62
2019-03-19T03:59:37.369Z,73.81
2019-03-19T04:00:13.911Z,73.79
2019-03-19T04:00:49.351Z,73.70
2019-03-19T04:01:25.069Z,73.65
2019-03-19T04:02:00.503Z,73.59
2019-03-19T04:02:36.049Z,73.59
2019-03-19T04:03:11.856Z,73.63
2019-03-19T04:03:47.437Z,73.75
2019-03-19T04:04:23.268Z,73.85
2019-03-19T04:04:58.861Z,73.98
2019-03-19T04:05:34.340Z,74.00
2019-03-19T04:06:10.081Z,74.13
2019-03-19T04:06:45.903Z,74.22
2019-03-19T04:07:21.344Z,74.21
2019-03-19T04:07:57.594Z,74.08
2019-03-19T04:08:33.084Z,74.12
2019-03-19T04:09:09.394Z,74.31
2019-03-19T04:09:45.168Z,74.31
2019-03-19T04:10:20.626Z,74.37
2019-03-19T04:10:56.047Z,74.42
2019-03-19T04:11:31.821Z,74.51
2019-03-19T04:12:07.285Z,74.52
2019-03-19T04:12:42.764Z,74.47
2019-03-19T04:13:18.261Z,74.45
2019-03-19T04:13:53.702Z,74.47
2019-03-19T04:14:29.127Z,74.58
2019-03-19T04:15:04.928Z,74.57
2019-03-19T04:15:40.450Z,74.50
2019-03-19T04:16:15.989Z,74.52
2019-03-19T04:16:51.447Z,74.52
2019-03-19T04:17:27.292Z,74.54
2019-03-19T04:18:03.175Z,74.55
2019-03-19T04:18:39.373Z,74.52
2019-03-19T04:19:14.871Z,74.53
2019-03-19T04:19:50.405Z,74.44
2019-03-19T04:20:25.910Z,74.46
2019-03-19T04:21:01.775Z,74.58
2019-03-19T04:21:37.303Z,74.65
2019-03-19T04:22:15.763Z,74.56
2019-03-19T04:22:49.982Z,74.64
2019-03-19T04:23:25.774Z,74.64
2019-03-19T04:24:01.213Z,74.68
2019-03-19T04:24:36.670Z,74.76
2019-03-19T04:25:12.654Z,74.78
2019-03-19T04:25:48.464Z,74.73
2019-03-19T04:26:23.904Z,74.69
2019-03-19T04:26:59.464Z,74.76
2019-03-19T04:27:35.166Z,74.72
2019-03-19T04:28:12.080Z,74.59
2019-03-19T04:28:51.465Z,74.55
2019-03-19T04:29:26.906Z,74.68
2019-03-19T04:30:02.768Z,74.81
2019-03-19T04:30:38.722Z,74.98
2019-03-19T04:31:14.300Z,75.04
2019-03-19T04:31:49.785Z,75.09
2019-03-19T04:32:25.262Z,75.19
2019-03-19T04:33:00.847Z,75.24
2019-03-19T04:33:36.351Z,75.36
2019-03-19T04:34:12.224Z,75.48
2019-03-19T04:34:48.071Z,75.55
2019-03-19T04:35:23.515Z,75.68
2019-03-19T04:35:58.978Z,75.86
2019-03-19T04:36:34.764Z,76.03
2019-03-19T04:37:10.226Z,76.09
2019-03-19T04:37:45.712Z,76.02
2019-03-19T04:38:21.161Z,75.83
2019-03-19T04:38:57.182Z,75.85
2019-03-19T04:39:33.421Z,75.95
2019-03-19T04:40:10.321Z,76.21
2019-03-19T04:40:46.243Z,76.38
2019-03-19T04:41:21.717Z,76.26
2019-03-19T04:41:57.274Z,76.25
2019-03-19T04:42:32.838Z,76.26
2019-03-19T04:43:08.266Z,76.10
2019-03-19T04:43:44.241Z,75.80
2019-03-19T04:44:20.022Z,75.69
2019-03-19T04:44:55.755Z,75.64
2019-03-19T04:45:32.214Z,75.84
2019-03-19T04:46:08.362Z,75.92
2019-03-19T04:46:44.546Z,76.12
2019-03-19T04:47:20.254Z,76.22
2019-03-19T04:47:55.915Z,76.35
2019-03-19T04:48:31.750Z,76.58
2019-03-19T04:49:07.676Z,76.70
2019-03-19T04:49:43.543Z,76.80
2019-03-19T04:50:19.047Z,76.80
2019-03-19T04:50:54.532Z,76.88
2019-03-19T04:51:29.974Z,76.97
2019-03-19T04:52:05.774Z,77.08
2019-03-19T04:52:41.538Z,77.18
2019-03-19T04:53:17.039Z,77.25
2019-03-19T04:53:53.240Z,77.17
2019-03-19T04:54:29.040Z,77.20
2019-03-19T04:55:05.808Z,77.33
2019-03-19T04:55:41.559Z,77.45
2019-03-19T04:56:17.760Z,77.56
2019-03-19T04:56:53.585Z,77.66
2019-03-19T04:57:29.024Z,77.76
2019-03-19T04:58:04.816Z,77.80
2019-03-19T04:58:40.616Z,77.75
2019-03-19T04:59:16.495Z,77.69
2019-03-19T04:59:51.972Z,77.60
2019-03-19T05:00:27.732Z,77.60
2019-03-19T05:01:03.158Z,77.63
2019-03-19T05:01:38.621Z,77.67
2019-03-19T05:02:14.397Z,77.71
2019-03-19T05:02:49.917Z,77.76
2019-03-19T05:03:26.074Z,77.78
2019-03-19T05:04:01.509Z,77.79
2019-03-19T05:04:37.368Z,77.82
2019-03-19T05:05:14.432Z,77.66
2019-03-19T05:05:50.833Z,77.64
2019-03-19T05:06:26.685Z,77.54
2019-03-19T05:07:02.581Z,77.52
2019-03-19T05:07:38.208Z,77.52
2019-03-19T05:08:13.978Z,77.68
2019-03-19T05:08:49.443Z,77.81
2019-03-19T05:09:25.650Z,77.91
2019-03-19T05:10:01.382Z,77.93
2019-03-19T05:10:36.849Z,78.02
2019-03-19T05:11:12.319Z,78.02
2019-03-19T05:11:48.087Z,78.06
2019-03-19T05:12:23.643Z,78.02
2019-03-19T05:13:00.808Z,78.00
2019-03-19T05:13:36.645Z,78.09
2019-03-19T05:14:12.551Z,78.08
2019-03-19T05:14:48.043Z,78.09
2019-03-19T05:15:23.523Z,78.12
2019-03-19T05:15:59.158Z,78.13
2019-03-19T05:16:34.714Z,78.18
2019-03-19T05:17:10.474Z,78.18
2019-03-19T05:17:46.389Z,78.24
2019-03-19T05:18:21.872Z,78.22
2019-03-19T05:18:57.647Z,78.24
2019-03-19T05:19:33.153Z,78.21
2019-03-19T05:20:09.463Z,78.06
2019-03-19T05:20:45.076Z,78.07
2019-03-19T05:21:20.893Z,78.04
2019-03-19T05:21:56.384Z,78.01
2019-03-19T05:22:31.906Z,77.85
2019-03-19T05:23:07.890Z,77.95
2019-03-19T05:23:43.342Z,78.14
2019-03-19T05:24:18.793Z,78.17
2019-03-19T05:24:54.591Z,78.18
2019-03-19T05:25:30.039Z,78.24
2019-03-19T05:26:05.512Z,77.92
2019-03-19T05:26:41.047Z,77.41
2019-03-19T05:27:16.895Z,77.14
2019-03-19T05:27:52.458Z,77.16
2019-03-19T05:28:27.959Z,77.37
2019-03-19T05:29:03.428Z,77.64
2019-03-19T05:29:38.944Z,77.77
2019-03-19T05:30:14.482Z,77.74
2019-03-19T05:30:49.970Z,77.71
2019-03-19T05:31:25.703Z,77.67
2019-03-19T05:32:01.153Z,77.62
2019-03-19T05:32:36.612Z,77.42
2019-03-19T05:33:12.486Z,77.29
2019-03-19T05:33:47.996Z,77.36
2019-03-19T05:34:23.427Z,77.40
2019-03-19T05:34:58.922Z,77.46
2019-03-19T05:35:34.378Z,77.51
2019-03-19T05:36:10.084Z,77.49
2019-03-19T05:36:46.350Z,77.43
2019-03-19T05:37:21.774Z,77.49
2019-03-19T05:37:57.263Z,77.63
2019-03-19T05:38:32.743Z,77.63
2019-03-19T05:39:08.611Z,77.52
2019-03-19T05:39:44.113Z,77.57
2019-03-19T05:40:22.342Z,77.53
2019-03-19T05:40:58.068Z,77.63
2019-03-19T05:41:33.948Z,77.69
2019-03-19T05:42:09.381Z,77.75
2019-03-19T05:42:45.057Z,77.78
2019-03-19T05:43:20.518Z,77.81
2019-03-19T05:43:56.261Z,77.76
2019-03-19T05:44:31.696Z,77.65
2019-03-19T05:45:09.433Z,77.61
2019-03-19T05:45:45.227Z,77.55
2019-03-19T05:46:20.684Z,77.52
2019-03-19T05:46:56.145Z,77.47
2019-03-19T05:47:37.333Z,77.43
2019-03-19T05:48:09.622Z,77.38
2019-03-19T05:48:45.421Z,77.19
2019-03-19T05:49:21.304Z,77.11
2019-03-19T05:49:57.056Z,77.11
2019-03-19T05:50:32.492Z,77.16
2019-03-19T05:51:07.964Z,77.24
2019-03-19T05:51:43.601Z,77.34
2019-03-19T05:52:19.284Z,77.46
2019-03-19T05:52:54.728Z,77.46
2019-03-19T05:53:30.185Z,77.43
2019-03-19T05:54:05.931Z,77.47
2019-03-19T05:54:41.386Z,77.39
2019-03-19T05:55:17.059Z,77.34
2019-03-19T05:55:52.617Z,77.37
2019-03-19T05:56:28.515Z,77.39
2019-03-19T05:57:04.710Z,77.38
2019-03-19T05:57:49.505Z,77.40
2019-03-19T05:58:18.122Z,77.39
2019-03-19T05:58:53.575Z,77.36
2019-03-19T05:59:29.010Z,77.36
2019-03-19T06:00:05.257Z,77.38
2019-03-19T06:00:40.702Z,77.33
2019-03-19T06:01:16.191Z,77.25
2019-03-19T06:01:51.674Z,77.10
2019-03-19T06:02:27.547Z,77.04
2019-03-19T06:03:03.238Z,76.83
2019-03-19T06:03:39.530Z,76.66
2019-03-19T06:04:15.451Z,76.36
2019-03-19T06:04:51.127Z,76.09
2019-03-19T06:05:26.957Z,75.80
2019-03-19T06:06:03.176Z,75.66
2019-03-19T06:06:39.058Z,75.52
2019-03-19T06:07:14.525Z,75.44
2019-03-19T06:07:50.311Z,75.31
2019-03-19T06:08:25.751Z,75.26
2019-03-19T06:09:01.194Z,75.25
2019-03-19T06:09:36.641Z,75.15
2019-03-19T06:10:12.782Z,75.18
2019-03-19T06:10:48.617Z,75.11
2019-03-19T06:11:24.098Z,75.17
2019-03-19T06:12:00.301Z,75.21
2019-03-19T06:12:35.735Z,75.22
2019-03-19T06:13:11.198Z,75.17
2019-03-19T06:13:46.768Z,75.29
2019-03-19T06:14:22.265Z,75.46
2019-03-19T06:14:57.725Z,75.60
2019-03-19T06:15:33.495Z,75.69
2019-03-19T06:16:09.941Z,75.79
2019-03-19T06:16:45.602Z,75.85
2019-03-19T06:17:21.114Z,75.89
2019-03-19T06:17:56.549Z,75.96
2019-03-19T06:18:35.307Z,75.91
2019-03-19T06:19:09.131Z,75.91
2019-03-19T06:19:45.639Z,75.94
2019-03-19T06:20:21.135Z,75.86
2019-03-19T06:20:56.702Z,75.80
2019-03-19T06:21:32.135Z,75.61
2019-03-19T06:22:07.568Z,75.56
2019-03-19T06:22:43.571Z,75.61
2019-03-19T06:23:19.047Z,75.48
2019-03-19T06:23:54.473Z,75.38
2019-03-19T06:24:30.733Z,75.24
2019-03-19T06:25:06.696Z,75.13
2019-03-19T06:25:42.842Z,75.09
2019-03-19T06:26:18.768Z,75.00
2019-03-19T06:26:54.517Z,75.05
2019-03-19T06:27:30.274Z,75.10
2019-03-19T06:28:06.405Z,75.14
2019-03-19T06:28:42.377Z,74.91
2019-03-19T06:29:17.882Z,74.85
2019-03-19T06:29:53.650Z,74.92
2019-03-19T06:30:29.137Z,74.92
2019-03-19T06:31:04.985Z,74.96
2019-03-19T06:31:40.542Z,75.02
2019-03-19T06:32:16.033Z,74.74
2019-03-19T06:32:51.627Z,74.65
2019-03-19T06:33:27.105Z,74.70
2019-03-19T06:34:02.596Z,74.75
2019-03-19T06:34:38.384Z,74.40
2019-03-19T06:35:13.952Z,74.39
2019-03-19T06:35:49.581Z,74.42
2019-03-19T06:36:24.970Z,74.41
2019-03-19T06:37:00.418Z,74.46
2019-03-19T06:37:35.871Z,74.39
2019-03-19T06:38:11.666Z,74.37
2019-03-19T06:38:47.310Z,74.43
2019-03-19T06:39:22.809Z,74.38
2019-03-19T06:39:58.273Z,73.65
2019-03-19T06:40:34.106Z,73.23
2019-03-19T06:41:09.583Z,73.29
2019-03-19T06:41:45.222Z,73.38
2019-03-19T06:42:20.711Z,73.59
2019-03-19T06:42:56.669Z,73.78
2019-03-19T06:43:32.098Z,73.94
2019-03-19T06:44:07.530Z,73.99
2019-03-19T06:44:43.309Z,74.04
2019-03-19T06:45:19.538Z,73.90
2019-03-19T06:45:55.428Z,73.71
2019-03-19T06:46:30.924Z,73.66
2019-03-19T06:47:06.738Z,73.59
2019-03-19T06:47:42.254Z,73.62
2019-03-19T06:48:17.847Z,73.65
2019-03-19T06:48:53.764Z,73.70
2019-03-19T06:49:29.239Z,73.68
2019-03-19T06:50:05.621Z,73.69
2019-03-19T06:50:45.547Z,73.65
2019-03-19T06:51:19.243Z,73.51
2019-03-19T06:51:54.724Z,73.43
2019-03-19T06:52:30.475Z,73.39
2019-03-19T06:53:06.447Z,73.38
2019-03-19T06:53:42.411Z,73.38
2019-03-19T06:54:18.195Z,73.37
2019-03-19T06:54:54.082Z,73.31
2019-03-19T06:55:29.561Z,73.29
2019-03-19T06:56:05.220Z,73.24
2019-03-19T06:56:41.194Z,73.14
2019-03-19T06:57:17.123Z,73.12
2019-03-19T06:57:52.568Z,73.15
2019-03-19T06:58:28.282Z,73.09
2019-03-19T06:59:03.745Z,72.99
2019-03-19T06:59:39.548Z,72.93
2019-03-19T07:00:19.607Z,72.84
2019-03-19T07:00:55.340Z,72.81
2019-03-19T07:01:31.074Z,72.65
2019-03-19T07:02:07.194Z,72.46
2019-03-19T07:02:42.654Z,72.36
2019-03-19T07:03:18.150Z,72.32
2019-03-19T07:03:53.943Z,72.25
2019-03-19T07:04:29.675Z,72.11
2019-03-19T07:05:06.652Z,72.05
2019-03-19T07:05:42.513Z,71.95
2019-03-19T07:06:18.487Z,71.61
2019-03-19T07:06:54.210Z,71.42
2019-03-19T07:07:29.746Z,71.34
2019-03-19T07:08:05.868Z,71.26
2019-03-19T07:08:41.443Z,71.04
2019-03-19T07:09:17.619Z,70.93
2019-03-19T07:09:53.424Z,71.01
2019-03-19T07:10:29.238Z,71.11
2019-03-19T07:11:05.093Z,71.08
2019-03-19T07:11:40.877Z,70.98
2019-03-19T07:12:16.558Z,70.92
2019-03-19T07:12:52.003Z,70.79
2019-03-19T07:13:27.488Z,70.58
2019-03-19T07:14:03.272Z,70.29
2019-03-19T07:14:38.741Z,70.34
2019-03-19T07:15:15.275Z,70.44
2019-03-19T07:15:50.811Z,70.45
2019-03-19T07:16:26.546Z,70.56
2019-03-19T07:17:02.472Z,70.52
2019-03-19T07:17:37.906Z,70.06
2019-03-19T07:18:13.828Z,69.83
2019-03-19T07:18:49.736Z,69.74
2019-03-19T07:19:25.201Z,69.63
2019-03-19T07:20:00.654Z,69.62
2019-03-19T07:20:36.730Z,69.59
2019-03-19T07:21:12.576Z,69.54
2019-03-19T07:21:48.467Z,69.53
2019-03-19T07:22:24.196Z,69.28
2019-03-19T07:22:59.646Z,69.29
2019-03-19T07:23:35.544Z,69.08
2019-03-19T07:24:10.970Z,68.88
2019-03-19T07:24:48.108Z,68.79
2019-03-19T07:25:23.875Z,68.68
2019-03-19T07:25:59.344Z,68.49
2019-03-19T07:26:35.468Z,68.55
2019-03-19T07:27:10.939Z,68.36
2019-03-19T07:27:46.440Z,68.22
2019-03-19T07:28:22.597Z,68.27
2019-03-19T07:28:58.080Z,68.21
2019-03-19T07:29:33.548Z,68.16
2019-03-19T07:30:12.399Z,68.16
2019-03-19T07:30:48.142Z,68.02
2019-03-19T07:31:30.684Z,67.93
2019-03-19T07:32:00.703Z,67.90
2019-03-19T07:32:36.470Z,67.78
2019-03-19T07:33:11.929Z,67.42
2019-03-19T07:33:47.788Z,67.22
2019-03-19T07:34:23.303Z,67.47
2019-03-19T07:34:58.774Z,67.54
2019-03-19T07:35:34.290Z,67.75
2019-03-19T07:36:09.798Z,67.74
2019-03-19T07:36:46.462Z,67.77
2019-03-19T07:37:22.011Z,67.87
2019-03-19T07:37:57.464Z,67.90
2019-03-19T07:38:33.605Z,67.78
2019-03-19T07:39:09.736Z,67.71
2019-03-19T07:39:45.219Z,67.54
2019-03-19T07:40:21.003Z,66.62